Time;durP1;ratioP1;P1;durP2;ratioP2;P2;SDS_P1;SDS_P2;PMS_P1;PMS_P2;Temp;Humidity;BMP_temperature;BMP_pressure;BME280_temperature;BME280_humidity;BME280_pressure;Samples;Min_cycle;Max_cycle;Signal;HPM_P1;HPM_P2
2021/05/18 00:01:28;;;;;;;;;;;9.30;99.90;;;;;;5074552;28;20023;-78
2021/05/18 00:04:00;;;;;;;;;;;9.30;99.90;;;;;;5074960;28;20020;-78
2021/05/18 00:06:32;;;;;;;;;;;9.30;99.90;;;;;;5074896;28;19928;-78
2021/05/18 00:11:45;;;;;;;;;;;9.30;99.90;;;;;;5092761;28;20019;-78
2021/05/18 00:14:22;;;;;;;;;;;9.30;99.90;;;;;;5074900;28;19924;-78
2021/05/18 00:16:54;;;;;;;;;;;9.30;99.90;;;;;;5074850;28;19966;-78
2021/05/18 00:19:21;;;;;;;;;;;9.30;99.90;;;;;;5058274;28;19991;-78
2021/05/18 00:21:48;;;;;;;;;;;9.40;99.90;;;;;;5074939;28;20015;-78
2021/05/18 00:24:19;;;;;;;;;;;9.40;99.90;;;;;;5067707;28;19930;-78
2021/05/18 00:26:51;;;;;;;;;;;9.30;99.90;;;;;;5074683;28;20014;-78
2021/05/18 00:29:18;;;;;;;;;;;9.30;99.90;;;;;;5074724;28;19924;-78
2021/05/18 00:31:50;;;;;;;;;;;9.30;99.90;;;;;;5058518;28;19924;-78
2021/05/18 00:34:16;;;;;;;;;;;9.30;99.90;;;;;;5074579;28;20282;-77
2021/05/18 00:36:43;;;;;;;;;;;9.30;99.90;;;;;;5074429;28;20027;-78
2021/05/18 00:39:10;;;;;;;;;;;9.30;99.90;;;;;;5074722;28;19928;-78
2021/05/18 00:41:36;;;;;;;;;;;9.30;99.90;;;;;;5092364;28;19974;-78
2021/05/18 00:44:08;;;;;;;;;;;9.30;99.90;;;;;;5074508;28;20291;-78
2021/05/18 00:46:35;;;;;;;;;;;9.20;99.90;;;;;;5074178;28;20018;-78
2021/05/18 00:49:01;;;;;;;;;;;9.30;99.90;;;;;;5057858;28;19977;-78
2021/05/18 00:51:38;;;;;;;;;;;9.30;99.90;;;;;;5058748;28;19924;-78
2021/05/18 00:54:09;;;;;;;;;;;9.20;99.90;;;;;;5057848;28;19931;-78
2021/05/18 00:59:07;;;;;;;;;;;9.20;99.90;;;;;;5074152;28;19995;-78
2021/05/18 01:01:39;;;;;;;;;;;9.20;99.90;;;;;;5073805;28;19924;-78
2021/05/18 01:04:14;;;;;;;;;;;9.10;99.90;;;;;;5073723;28;20039;-78
2021/05/18 01:06:46;;;;;;;;;;;9.10;99.90;;;;;;5057080;28;20402;-78
2021/05/18 01:09:20;;;;;;;;;;;9.00;99.90;;;;;;5074120;28;19931;-78
2021/05/18 01:11:51;;;;;;;;;;;9.00;99.90;;;;;;5073469;28;20023;-78
2021/05/18 01:14:18;;;;;;;;;;;9.00;99.90;;;;;;5074015;28;19931;-78
2021/05/18 01:16:47;;;;;;;;;;;8.90;99.90;;;;;;5074206;28;19930;-78
2021/05/18 01:19:14;;;;;;;;;;;8.90;99.90;;;;;;5074460;28;19981;-78
2021/05/18 01:21:41;;;;;;;;;;;8.90;99.90;;;;;;5064622;28;19924;-79
2021/05/18 01:24:14;;;;;;;;;;;8.90;99.90;;;;;;5080813;28;19924;-78
2021/05/18 01:26:46;;;;;;;;;;;8.90;99.90;;;;;;5063458;28;19924;-78
2021/05/18 01:29:21;;;;;;;;;;;8.80;99.90;;;;;;5077839;28;20307;-78
2021/05/18 01:31:54;;;;;;;;;;;8.80;99.90;;;;;;5057474;28;20294;-77
2021/05/18 01:34:25;;;;;;;;;;;8.80;99.90;;;;;;5057536;28;19924;-78
2021/05/18 01:36:53;;;;;;;;;;;8.90;99.90;;;;;;5074876;28;20030;-78
2021/05/18 01:45:09;;;;;;;;;;;8.80;99.90;;;;;;5077340;28;19927;-78
2021/05/18 01:47:36;;;;;;;;;;;8.80;99.90;;;;;;5077668;28;19928;-78
2021/05/18 01:50:04;;;;;;;;;;;8.80;99.90;;;;;;5061219;28;19924;-78
2021/05/18 01:52:36;;;;;;;;;;;8.80;99.90;;;;;;5078407;28;19924;-78
2021/05/18 01:55:03;;;;;;;;;;;8.80;99.90;;;;;;5077443;28;19924;-78
2021/05/18 01:57:37;;;;;;;;;;;8.80;99.90;;;;;;5077381;28;19927;-78
2021/05/18 02:00:13;;;;;;;;;;;8.80;99.90;;;;;;5078655;28;20406;-78
2021/05/18 02:02:40;;;;;;;;;;;8.80;99.90;;;;;;5077715;28;19924;-78
2021/05/18 02:05:11;;;;;;;;;;;8.80;99.90;;;;;;5077453;28;20031;-78
2021/05/18 02:07:44;;;;;;;;;;;8.80;99.90;;;;;;5077045;28;19924;-78
2021/05/18 02:10:18;;;;;;;;;;;8.80;99.90;;;;;;5061276;28;19935;-78
2021/05/18 02:13:03;;;;;;;;;;;8.80;99.90;;;;;;5062960;28;19982;-79
2021/05/18 02:15:40;;;;;;;;;;;8.80;99.90;;;;;;5077007;28;20408;-78
2021/05/18 02:21:37;;;;;;;;;;;8.80;99.90;;;;;;5077137;28;19928;-78
2021/05/18 02:26:26;;;;;;;;;;;8.80;99.90;;;;;;5076691;28;19928;-78
2021/05/18 02:29:01;;;;;;;;;;;8.80;99.90;;;;;;5078405;28;20374;-78
2021/05/18 02:31:28;;;;;;;;;;;8.80;99.90;;;;;;5060091;28;20382;-78
2021/05/18 02:34:02;;;;;;;;;;;8.80;99.90;;;;;;5061431;28;20314;-78
2021/05/18 02:36:36;;;;;;;;;;;8.80;99.90;;;;;;5061101;28;20039;-78
2021/05/18 02:39:04;;;;;;;;;;;8.80;99.90;;;;;;5059956;28;19924;-78
2021/05/18 02:41:31;;;;;;;;;;;8.80;99.90;;;;;;5076238;28;20443;-79
2021/05/18 02:44:15;;;;;;;;;;;8.70;99.90;;;;;;5076345;28;20011;-79
2021/05/18 02:49:36;;;;;;;;;;;8.70;99.90;;;;;;5076263;28;19930;-78
2021/05/18 02:52:08;;;;;;;;;;;8.70;99.90;;;;;;5076251;28;20018;-78
2021/05/18 02:54:38;;;;;;;;;;;8.70;99.90;;;;;;5076189;28;19924;-78
2021/05/18 02:57:12;;;;;;;;;;;8.70;99.90;;;;;;5076155;28;19960;-78
2021/05/18 02:59:38;;;;;;;;;;;8.80;99.90;;;;;;5059748;28;20014;-78
2021/05/18 03:02:10;;;;;;;;;;;8.80;99.90;;;;;;5075957;28;19970;-78
2021/05/18 03:04:42;;;;;;;;;;;8.80;99.90;;;;;;5076995;28;20012;-78
2021/05/18 03:07:09;;;;;;;;;;;8.80;99.90;;;;;;5075943;28;19965;-78
2021/05/18 03:09:40;;;;;;;;;;;8.90;99.90;;;;;;5076014;28;19924;-78
2021/05/18 03:12:07;;;;;;;;;;;8.90;99.90;;;;;;5075838;28;20039;-78
2021/05/18 03:14:34;;;;;;;;;;;8.90;99.90;;;;;;5076081;28;20358;-78
2021/05/18 03:17:02;;;;;;;;;;;8.80;99.90;;;;;;5075664;28;20369;-78
2021/05/18 03:19:28;;;;;;;;;;;8.90;99.90;;;;;;5075631;28;20022;-78
2021/05/18 03:22:00;;;;;;;;;;;8.90;99.90;;;;;;5075578;28;19924;-78
2021/05/18 03:24:32;;;;;;;;;;;8.90;99.90;;;;;;5059914;28;19924;-78
2021/05/18 03:26:58;;;;;;;;;;;8.90;99.90;;;;;;5075141;28;19993;-78
2021/05/18 03:29:29;;;;;;;;;;;8.90;99.90;;;;;;5076019;28;19930;-78
2021/05/18 03:35:04;;;;;;;;;;;8.80;99.90;;;;;;5076366;28;19924;-80
2021/05/18 03:37:51;;;;;;;;;;;8.80;99.90;;;;;;5093215;28;19908;-80
2021/05/18 03:40:23;;;;;;;;;;;8.80;99.90;;;;;;5096505;28;19924;-80
2021/05/18 03:43:21;;;;;;;;;;;8.80;99.90;;;;;;5078947;28;19931;-80
2021/05/18 03:45:43;;;;;;;;;;;8.80;99.90;;;;;;5094126;28;19923;-80
2021/05/18 04:02:39;;;;;;;;;;;8.80;99.90;;;;;;5093968;28;19928;-80
2021/05/18 04:04:46;;;;;;;;;;;8.90;99.90;;;;;;5093253;28;19931;-80
2021/05/18 04:10:27;;;;;;;;;;;8.80;99.90;;;;;;5091551;28;19924;-80
2021/05/18 04:13:04;;;;;;;;;;;8.80;99.90;;;;;;5107920;28;19959;-80
2021/05/18 04:18:19;;;;;;;;;;;8.80;99.90;;;;;;5092874;28;19924;-79
2021/05/18 04:21:02;;;;;;;;;;;8.80;99.90;;;;;;5079910;28;19912;-80
2021/05/18 04:26:20;;;;;;;;;;;8.80;99.90;;;;;;5085723;28;19975;-80
2021/05/18 04:48:53;;;;;;;;;;;8.50;99.90;;;;;;5099018;28;19924;-80
2021/05/18 04:59:20;;;;;;;;;;;8.40;99.90;;;;;;5116027;28;19934;-79
2021/05/18 05:02:07;;;;;;;;;;;8.40;99.90;;;;;;5081245;28;19912;-79
2021/05/18 05:07:11;;;;;;;;;;;8.30;99.90;;;;;;5090512;28;19935;-80
2021/05/18 05:09:42;;;;;;;;;;;8.30;99.90;;;;;;5093012;28;19920;-80
2021/05/18 05:14:50;;;;;;;;;;;8.30;99.90;;;;;;5100008;28;19947;-79
2021/05/18 05:17:22;;;;;;;;;;;8.30;99.90;;;;;;5095318;28;19920;-79
2021/05/18 05:19:48;;;;;;;;;;;8.30;99.90;;;;;;5092461;28;19932;-80
2021/05/18 05:22:15;;;;;;;;;;;8.40;99.90;;;;;;5093764;28;19924;-80
2021/05/18 05:24:44;;;;;;;;;;;8.40;99.90;;;;;;5092416;28;19924;-79
2021/05/18 05:27:16;;;;;;;;;;;8.40;99.90;;;;;;5079750;28;19944;-79
2021/05/18 07:20:59;;;;;;;;;;;10.50;99.90;;;;;;5114118;28;20636;-79
2021/05/18 07:24:18;;;;;;;;;;;10.30;99.90;;;;;;5096897;28;19922;-78
2021/05/18 07:26:50;;;;;;;;;;;10.20;99.90;;;;;;5096766;28;19928;-79
2021/05/18 07:29:17;;;;;;;;;;;10.10;99.90;;;;;;5097196;28;19928;-79
2021/05/18 07:31:49;;;;;;;;;;;10.00;99.90;;;;;;5097286;28;20016;-79
2021/05/18 07:34:16;;;;;;;;;;;9.90;99.90;;;;;;5079713;28;19930;-78
2021/05/18 07:36:43;;;;;;;;;;;9.80;99.90;;;;;;5123872;28;19927;-80
2021/05/18 07:39:10;;;;;;;;;;;9.80;99.90;;;;;;5099985;28;19949;-79
2021/05/18 07:41:42;;;;;;;;;;;9.70;99.90;;;;;;5077504;28;19935;-81
2021/05/18 07:44:14;;;;;;;;;;;9.60;99.90;;;;;;5089333;28;19923;-79
2021/05/18 07:46:42;;;;;;;;;;;9.60;99.90;;;;;;5084485;28;19977;-79
2021/05/18 08:00:04;;;;;;;;;;;9.30;99.90;;;;;;5069919;28;19930;-78
2021/05/18 08:05:18;;;;;;;;;;;9.30;99.90;;;;;;5074177;28;20313;-78
2021/05/18 08:07:50;;;;;;;;;;;9.30;99.90;;;;;;5073972;28;19931;-78
2021/05/18 08:10:21;;;;;;;;;;;9.30;99.90;;;;;;5073590;28;19961;-78
2021/05/18 08:12:47;;;;;;;;;;;9.30;99.90;;;;;;5092023;28;20294;-77
2021/05/18 08:15:32;;;;;;;;;;;9.30;99.90;;;;;;5065385;28;19969;-78
2021/05/18 09:29:46;;;;;;;;;;;10.30;99.90;;;;;;5075678;28;19997;-81
2021/05/18 10:18:12;;;;;;;;;;;9.20;99.90;;;;;;5075889;28;20346;-78
2021/05/18 10:35:59;;;;;;;;;;;9.80;99.90;;;;;;5059641;28;20014;-80
2021/05/18 10:38:41;;;;;;;;;;;9.90;99.90;;;;;;5060121;28;19929;-80
2021/05/18 10:41:19;;;;;;;;;;;10.00;99.90;;;;;;5057996;28;19928;-80
2021/05/18 10:43:56;;;;;;;;;;;10.00;99.90;;;;;;5076818;28;19930;-79
2021/05/18 10:46:34;;;;;;;;;;;10.20;99.90;;;;;;5078845;28;19975;-79
2021/05/18 10:49:01;;;;;;;;;;;10.30;99.90;;;;;;5101095;28;19931;-80
2021/05/18 10:51:31;;;;;;;;;;;10.40;99.90;;;;;;5100466;28;19924;-78
2021/05/18 10:54:04;;;;;;;;;;;10.50;99.90;;;;;;5068861;28;19931;-78
2021/05/18 10:57:01;;;;;;;;;;;10.60;99.90;;;;;;5059038;28;19971;-78
2021/05/18 10:59:34;;;;;;;;;;;10.70;99.90;;;;;;5039433;28;19924;-79
2021/05/18 11:02:19;;;;;;;;;;;10.80;99.90;;;;;;5059710;28;19928;-78
2021/05/18 11:04:45;;;;;;;;;;;10.80;99.90;;;;;;5059040;28;19928;-78
2021/05/18 11:07:15;;;;;;;;;;;10.90;99.90;;;;;;5058744;28;20001;-78
2021/05/18 11:09:42;;;;;;;;;;;10.90;99.90;;;;;;5071536;28;19931;-78
2021/05/18 11:12:11;;;;;;;;;;;11.00;99.90;;;;;;5095227;28;19928;-78
2021/05/18 11:14:51;;;;;;;;;;;11.00;99.90;;;;;;5095758;28;19972;-78
2021/05/18 11:17:18;;;;;;;;;;;11.20;99.90;;;;;;5078592;28;19982;-78
2021/05/18 11:19:57;;;;;;;;;;;11.50;99.90;;;;;;5095638;28;19978;-78
2021/05/18 11:25:11;;;;;;;;;;;12.10;99.90;;;;;;5095694;28;19982;-78
2021/05/18 11:27:39;;;;;;;;;;;12.30;99.90;;;;;;5096484;28;19930;-79
2021/05/18 11:30:27;;;;;;;;;;;12.40;99.90;;;;;;5083385;28;19927;-81
2021/05/18 11:32:55;;;;;;;;;;;12.40;99.90;;;;;;5073178;28;19924;-78
2021/05/18 11:35:22;;;;;;;;;;;12.40;99.90;;;;;;5074949;28;20336;-78
2021/05/18 11:38:02;;;;;;;;;;;12.50;99.90;;;;;;5053493;28;19931;-79
2021/05/18 11:40:29;;;;;;;;;;;12.70;99.90;;;;;;5063190;28;20023;-79
2021/05/18 11:43:11;;;;;;;;;;;12.60;99.90;;;;;;5113036;28;19946;-79
2021/05/18 11:45:44;;;;;;;;;;;12.60;99.90;;;;;;5078850;28;19923;-78
2021/05/18 11:48:11;;;;;;;;;;;12.80;99.90;;;;;;5092830;28;19924;-79
2021/05/18 11:50:38;;;;;;;;;;;13.00;99.90;;;;;;5078732;28;19931;-79
2021/05/18 11:53:05;;;;;;;;;;;13.00;99.90;;;;;;5092169;28;20017;-79
2021/05/18 11:55:33;;;;;;;;;;;12.90;99.90;;;;;;5092874;28;19966;-79
2021/05/18 11:58:01;;;;;;;;;;;12.90;99.90;;;;;;5095008;28;20441;-80
2021/05/18 12:00:29;;;;;;;;;;;13.10;99.90;;;;;;5078538;28;19992;-79
2021/05/18 12:03:05;;;;;;;;;;;13.30;99.90;;;;;;5095240;28;19923;-79
2021/05/18 12:05:33;;;;;;;;;;;13.30;99.90;;;;;;5095825;28;19946;-79
2021/05/18 12:08:05;;;;;;;;;;;13.40;99.90;;;;;;5079553;28;19934;-80
2021/05/18 12:10:33;;;;;;;;;;;13.50;99.90;;;;;;5065792;28;20018;-79
2021/05/18 12:13:01;;;;;;;;;;;13.40;99.90;;;;;;5092670;28;19924;-79
2021/05/18 12:15:32;;;;;;;;;;;13.20;99.90;;;;;;5072922;28;19924;-78
2021/05/18 12:17:59;;;;;;;;;;;13.10;99.90;;;;;;5058230;28;19935;-78
2021/05/18 12:20:26;;;;;;;;;;;12.80;99.90;;;;;;5055239;28;19928;-80
2021/05/18 12:22:53;;;;;;;;;;;12.60;99.90;;;;;;5073521;28;19924;-78
2021/05/18 12:25:32;;;;;;;;;;;12.40;99.90;;;;;;5075414;28;20015;-78
2021/05/18 12:28:10;;;;;;;;;;;12.00;99.90;;;;;;5057597;28;20378;-79
2021/05/18 12:30:43;;;;;;;;;;;11.80;99.90;;;;;;5052545;28;19925;-78
2021/05/18 12:33:11;;;;;;;;;;;11.70;99.90;;;;;;5045056;28;19932;-79
2021/05/18 12:35:38;;;;;;;;;;;11.60;99.90;;;;;;5060002;28;19924;-79
2021/05/18 12:38:13;;;;;;;;;;;11.90;99.90;;;;;;5078103;28;20044;-79
2021/05/18 12:40:47;;;;;;;;;;;12.00;99.90;;;;;;5068509;28;23274;-80
2021/05/18 12:43:22;;;;;;;;;;;12.30;99.90;;;;;;5042113;28;19946;-80
2021/05/18 12:46:05;;;;;;;;;;;12.40;99.90;;;;;;5058865;28;20422;-80
2021/05/18 12:48:36;;;;;;;;;;;12.50;99.90;;;;;;5073063;28;20457;-80
2021/05/18 12:51:15;;;;;;;;;;;12.60;99.90;;;;;;5074401;28;20371;-79
2021/05/18 12:53:43;;;;;;;;;;;12.60;99.90;;;;;;5055834;28;19992;-78
2021/05/18 12:56:12;;;;;;;;;;;12.60;99.90;;;;;;5054076;28;20031;-79
2021/05/18 12:58:39;;;;;;;;;;;12.50;99.90;;;;;;5054129;28;19936;-79
2021/05/18 13:01:12;;;;;;;;;;;12.10;99.90;;;;;;5055114;28;19925;-81
2021/05/18 13:03:42;;;;;;;;;;;11.50;99.90;;;;;;5039489;28;19929;-81
2021/05/18 13:06:10;;;;;;;;;;;11.20;99.90;;;;;;5039403;28;20031;-81
2021/05/18 13:08:38;;;;;;;;;;;10.90;99.90;;;;;;5072635;28;19975;-80
2021/05/18 13:12:11;;;;;;;;;;;10.70;99.90;;;;;;5054048;23;19926;-80
2021/05/18 13:14:04;;;;;;;;;;;10.40;99.90;;;;;;5018759;28;19929;-81
2021/05/18 13:16:32;;;;;;;;;;;10.30;99.90;;;;;;5019199;28;19931;-80
2021/05/18 13:19:05;;;;;;;;;;;10.10;99.90;;;;;;5051901;28;19929;-80
2021/05/18 13:22:04;;;;;;;;;;;10.00;99.90;;;;;;5065347;23;20034;-78
2021/05/18 13:27:17;;;;;;;;;;;9.60;99.90;;;;;;5072373;28;19924;-81
2021/05/18 13:29:45;;;;;;;;;;;9.60;99.90;;;;;;5057279;28;19924;-82
2021/05/18 13:32:18;;;;;;;;;;;9.70;99.90;;;;;;5316131;22;19926;-81
2021/05/18 13:34:47;;;;;;;;;;;10.00;99.90;;;;;;5056461;28;19953;-81
2021/05/18 13:37:18;;;;;;;;;;;10.30;99.90;;;;;;5002320;28;19926;-79
2021/05/18 13:39:46;;;;;;;;;;;10.70;99.90;;;;;;5021468;28;19968;-82
2021/05/18 13:42:15;;;;;;;;;;;11.00;99.90;;;;;;5022873;28;19932;-81
2021/05/18 13:44:44;;;;;;;;;;;11.40;99.90;;;;;;5005265;28;20303;-81
2021/05/18 13:47:17;;;;;;;;;;;11.60;99.90;;;;;;5006976;28;19961;-81
2021/05/18 13:49:50;;;;;;;;;;;11.70;99.90;;;;;;5024590;28;19932;-81
2021/05/18 13:52:34;;;;;;;;;;;11.80;99.90;;;;;;5021750;28;19961;-81
2021/05/18 13:55:17;;;;;;;;;;;11.80;99.90;;;;;;5013428;28;19926;-80
2021/05/18 13:57:45;;;;;;;;;;;11.70;99.90;;;;;;4997115;28;20400;-80
2021/05/18 14:00:21;;;;;;;;;;;11.80;99.90;;;;;;5028968;28;19932;-81
2021/05/18 14:02:52;;;;;;;;;;;11.90;99.90;;;;;;5008750;28;19953;-80
2021/05/18 14:05:27;;;;;;;;;;;12.10;99.90;;;;;;5018950;28;19932;-82
2021/05/18 14:08:19;;;;;;;;;;;12.30;99.90;;;;;;5018987;28;19925;-81
2021/05/18 14:10:50;;;;;;;;;;;12.50;99.90;;;;;;5013913;28;20458;-81
2021/05/18 14:13:21;;;;;;;;;;;12.70;99.90;;;;;;4981627;28;19964;-80
2021/05/18 14:15:49;;;;;;;;;;;12.80;99.90;;;;;;4996497;28;20443;-80
2021/05/18 14:18:18;;;;;;;;;;;12.80;99.90;;;;;;4980317;28;20388;-81
2021/05/18 14:20:45;;;;;;;;;;;12.90;99.90;;;;;;4997444;28;19926;-80
2021/05/18 14:23:19;;;;;;;;;;;13.10;99.90;;;;;;4980669;28;19926;-80
2021/05/18 14:25:46;;;;;;;;;;;13.20;99.90;;;;;;5010209;28;19926;-80
2021/05/18 14:28:20;;;;;;;;;;;13.20;99.90;;;;;;5016410;28;19925;-80
2021/05/18 14:30:49;;;;;;;;;;;13.50;99.90;;;;;;5034191;28;20076;-81
2021/05/18 14:33:18;;;;;;;;;;;13.80;99.90;;;;;;5037109;28;20055;-81
2021/05/18 14:35:47;;;;;;;;;;;13.90;99.90;;;;;;5041020;28;19925;-81
2021/05/18 14:38:23;;;;;;;;;;;14.00;99.90;;;;;;5022539;28;19928;-79
2021/05/18 14:54:59;;;;;;;;;;;14.30;99.90;;;;;;5053122;28;20024;-79
2021/05/18 14:57:19;;;;;;;;;;;14.30;99.90;;;;;;5017036;28;19932;-80
2021/05/18 14:59:48;;;;;;;;;;;14.40;99.90;;;;;;5019319;28;19992;-78
2021/05/18 15:02:17;;;;;;;;;;;14.50;99.90;;;;;;5005174;28;19925;-80
2021/05/18 15:04:45;;;;;;;;;;;14.60;99.90;;;;;;5038384;28;19925;-77
2021/05/18 15:07:17;;;;;;;;;;;14.60;99.90;;;;;;5017730;28;19929;-77
2021/05/18 15:09:49;;;;;;;;;;;14.80;99.90;;;;;;5017864;28;19932;-78
2021/05/18 15:12:16;;;;;;;;;;;15.20;99.90;;;;;;5025199;28;20406;-78
2021/05/18 15:14:45;;;;;;;;;;;15.20;99.90;;;;;;5017901;28;20356;-78
2021/05/18 15:17:12;;;;;;;;;;;15.10;99.90;;;;;;5018287;28;19937;-78
2021/05/18 15:19:39;;;;;;;;;;;15.00;99.90;;;;;;5012039;28;19925;-78
2021/05/18 15:22:08;;;;;;;;;;;14.50;99.90;;;;;;5032449;28;19925;-77
2021/05/18 15:24:35;;;;;;;;;;;14.40;99.90;;;;;;5015492;28;19968;-77
2021/05/18 15:27:03;;;;;;;;;;;14.10;99.90;;;;;;5017182;28;19937;-77
2021/05/18 15:29:30;;;;;;;;;;;13.80;99.90;;;;;;4998390;28;20406;-77
2021/05/18 15:31:59;;;;;;;;;;;13.80;99.90;;;;;;5026384;28;19929;-78
2021/05/18 15:34:26;;;;;;;;;;;14.00;99.90;;;;;;5015983;28;19983;-77
2021/05/18 15:36:57;;;;;;;;;;;14.50;99.90;;;;;;5033140;28;20004;-77
2021/05/18 15:39:29;;;;;;;;;;;14.80;99.90;;;;;;5001378;28;20375;-77
2021/05/18 15:42:01;;;;;;;;;;;15.10;99.90;;;;;;5029501;28;19929;-77
2021/05/18 15:44:33;;;;;;;;;;;15.20;99.90;;;;;;5001478;28;20415;-77
2021/05/18 15:47:05;;;;;;;;;;;15.30;99.90;;;;;;5029305;28;20402;-77
2021/05/18 15:49:37;;;;;;;;;;;15.20;99.90;;;;;;5001050;28;20032;-77
2021/05/18 15:52:08;;;;;;;;;;;14.90;99.90;;;;;;5026890;28;19935;-77
2021/05/18 15:54:40;;;;;;;;;;;14.50;99.90;;;;;;5011240;28;19932;-77
2021/05/18 15:57:07;;;;;;;;;;;14.00;99.90;;;;;;5014344;28;19925;-77
2021/05/18 15:59:33;;;;;;;;;;;13.70;99.90;;;;;;5014265;28;20030;-77
2021/05/18 16:02:00;;;;;;;;;;;13.50;99.90;;;;;;5030891;28;20015;-77
2021/05/18 16:04:32;;;;;;;;;;;13.40;99.90;;;;;;5015072;28;19935;-78
2021/05/18 16:07:08;;;;;;;;;;;13.30;99.90;;;;;;5030182;28;20103;-76
2021/05/18 16:09:39;;;;;;;;;;;13.30;99.90;;;;;;5029682;28;19924;-77
2021/05/18 16:12:11;;;;;;;;;;;13.20;99.90;;;;;;5031135;28;20032;-77
2021/05/18 16:14:38;;;;;;;;;;;13.30;99.90;;;;;;5019514;28;19925;-76
2021/05/18 16:17:05;;;;;;;;;;;13.10;99.90;;;;;;5044983;28;20027;-77
2021/05/18 16:19:36;;;;;;;;;;;13.10;99.90;;;;;;5031607;28;20024;-77
2021/05/18 16:22:03;;;;;;;;;;;13.50;99.90;;;;;;5013594;28;19925;-77
2021/05/18 16:24:33;;;;;;;;;;;13.90;99.90;;;;;;4997691;28;19952;-76
2021/05/18 16:27:05;;;;;;;;;;;14.50;99.90;;;;;;5012592;28;19925;-77
2021/05/18 16:29:37;;;;;;;;;;;14.70;99.90;;;;;;5044614;28;20019;-77
2021/05/18 16:32:04;;;;;;;;;;;15.00;99.90;;;;;;5012224;28;20023;-77
2021/05/18 16:34:32;;;;;;;;;;;15.30;99.90;;;;;;4994847;28;19926;-77
2021/05/18 16:37:04;;;;;;;;;;;15.40;99.90;;;;;;5010273;28;20384;-77
2021/05/18 16:39:30;;;;;;;;;;;15.40;99.90;;;;;;5006471;28;19972;-75
2021/05/18 16:41:57;;;;;;;;;;;15.30;99.90;;;;;;5020827;28;19975;-77
2021/05/18 16:44:24;;;;;;;;;;;15.40;99.90;;;;;;5011030;28;19965;-78
2021/05/18 16:46:51;;;;;;;;;;;15.70;99.90;;;;;;5047448;28;19975;-78
2021/05/18 16:49:18;;;;;;;;;;;16.00;99.90;;;;;;4995380;28;20031;-78
2021/05/18 16:51:45;;;;;;;;;;;16.20;99.90;;;;;;4997256;28;20025;-78
2021/05/18 16:54:11;;;;;;;;;;;16.30;97.10;;;;;;5013840;28;19983;-78
2021/05/18 16:56:38;;;;;;;;;;;16.30;96.30;;;;;;5014300;28;20021;-77
2021/05/18 16:59:06;;;;;;;;;;;16.70;96.60;;;;;;4997410;28;20571;-77
2021/05/18 17:01:33;;;;;;;;;;;17.00;95.70;;;;;;5031627;28;19977;-77
2021/05/18 17:04:05;;;;;;;;;;;17.00;94.20;;;;;;5033406;28;20414;-78
2021/05/18 17:06:33;;;;;;;;;;;16.70;94.70;;;;;;5017625;28;19926;-78
2021/05/18 17:08:59;;;;;;;;;;;16.70;95.60;;;;;;5036382;28;19956;-77
2021/05/18 17:11:31;;;;;;;;;;;16.80;93.30;;;;;;5018222;28;20032;-77
2021/05/18 17:13:58;;;;;;;;;;;16.50;92.10;;;;;;5034237;28;19925;-77
2021/05/18 17:16:25;;;;;;;;;;;16.60;92.20;;;;;;5018034;28;19963;-77
2021/05/18 17:18:57;;;;;;;;;;;16.70;91.40;;;;;;5033503;28;20023;-77
2021/05/18 17:21:25;;;;;;;;;;;17.20;91.10;;;;;;5001422;28;20010;-77
2021/05/18 17:23:57;;;;;;;;;;;17.30;90.80;;;;;;5033670;28;20012;-78
2021/05/18 17:26:24;;;;;;;;;;;17.20;91.20;;;;;;5033713;28;19935;-77
2021/05/18 17:28:51;;;;;;;;;;;16.90;90.80;;;;;;5016170;28;20020;-78
2021/05/18 17:31:18;;;;;;;;;;;16.90;91.50;;;;;;5017115;28;20059;-77
2021/05/18 17:33:45;;;;;;;;;;;16.80;91.20;;;;;;5033452;28;20296;-77
2021/05/18 17:36:16;;;;;;;;;;;16.80;90.50;;;;;;5018337;28;19925;-77
2021/05/18 17:38:43;;;;;;;;;;;16.40;91.90;;;;;;5033543;28;19935;-77
2021/05/18 17:41:10;;;;;;;;;;;16.30;91.20;;;;;;5050154;28;19936;-77
2021/05/18 17:43:37;;;;;;;;;;;16.20;92.30;;;;;;5013536;28;19933;-77
2021/05/18 17:46:08;;;;;;;;;;;15.70;91.20;;;;;;5000252;28;19933;-78
2021/05/18 17:48:40;;;;;;;;;;;15.40;92.10;;;;;;5016419;28;20032;-80
2021/05/18 17:51:07;;;;;;;;;;;15.00;94.70;;;;;;5018693;28;20353;-81
2021/05/18 17:53:33;;;;;;;;;;;14.70;95.70;;;;;;5002997;28;20315;-81
2021/05/18 17:56:05;;;;;;;;;;;14.50;96.60;;;;;;5019780;28;19925;-80
2021/05/18 17:58:32;;;;;;;;;;;14.20;98.30;;;;;;5002885;28;19960;-81
2021/05/18 18:00:58;;;;;;;;;;;14.00;99.00;;;;;;5018789;28;19975;-80
2021/05/18 18:03:26;;;;;;;;;;;13.70;99.10;;;;;;5019601;28;19925;-81
2021/05/18 18:05:56;;;;;;;;;;;13.40;99.90;;;;;;5019534;28;19947;-81
2021/05/18 18:08:25;;;;;;;;;;;13.20;99.90;;;;;;5003226;28;19925;-80
2021/05/18 18:10:52;;;;;;;;;;;13.10;99.90;;;;;;5019809;28;20299;-80
2021/05/18 18:13:20;;;;;;;;;;;13.00;99.90;;;;;;5019208;28;19925;-80
2021/05/18 18:15:52;;;;;;;;;;;12.90;99.90;;;;;;5003642;28;19932;-80
2021/05/18 18:18:19;;;;;;;;;;;12.80;99.90;;;;;;5017978;28;20039;-81
2021/05/18 18:20:47;;;;;;;;;;;12.70;99.90;;;;;;5036726;28;21260;-81
2021/05/18 18:23:14;;;;;;;;;;;12.60;99.90;;;;;;5018885;28;19928;-81
2021/05/18 18:25:41;;;;;;;;;;;12.40;99.90;;;;;;5018693;28;19925;-81
2021/05/18 18:28:08;;;;;;;;;;;12.20;99.90;;;;;;5017960;28;19925;-82
2021/05/18 18:30:36;;;;;;;;;;;12.20;99.90;;;;;;5018448;28;19925;-81
2021/05/18 18:33:03;;;;;;;;;;;12.20;99.90;;;;;;5018156;28;20439;-81
2021/05/18 18:35:30;;;;;;;;;;;12.20;99.90;;;;;;5018487;28;19925;-79
2021/05/18 18:38:00;;;;;;;;;;;12.20;99.90;;;;;;5034891;28;19925;-80
2021/05/18 18:40:27;;;;;;;;;;;12.20;99.90;;;;;;5002188;28;19925;-81
2021/05/18 18:42:54;;;;;;;;;;;12.20;99.90;;;;;;5018078;28;19983;-81
2021/05/18 18:45:21;;;;;;;;;;;12.10;99.90;;;;;;5001661;28;19936;-81
2021/05/18 18:47:54;;;;;;;;;;;11.80;99.90;;;;;;5002895;28;19929;-81
2021/05/18 18:50:27;;;;;;;;;;;11.70;99.90;;;;;;5001907;28;20298;-79
2021/05/18 18:53:04;;;;;;;;;;;11.70;99.90;;;;;;5003139;28;20454;-81
2021/05/18 18:55:32;;;;;;;;;;;11.80;99.90;;;;;;5019430;28;19925;-81
2021/05/18 18:57:59;;;;;;;;;;;11.60;99.90;;;;;;5018805;28;20002;-81
2021/05/18 19:00:26;;;;;;;;;;;11.50;99.90;;;;;;5018878;28;20354;-81
2021/05/18 19:03:03;;;;;;;;;;;11.40;99.90;;;;;;5036147;28;19925;-81
2021/05/18 19:05:44;;;;;;;;;;;11.30;99.90;;;;;;5019047;28;19929;-80
2021/05/18 19:08:31;;;;;;;;;;;11.20;99.90;;;;;;5004113;28;20522;-81
2021/05/18 19:13:26;;;;;;;;;;;10.90;99.90;;;;;;5016405;28;19932;-78
2021/05/18 19:15:53;;;;;;;;;;;10.80;99.90;;;;;;5014313;28;19932;-78
2021/05/18 19:18:20;;;;;;;;;;;10.80;99.90;;;;;;5017134;28;19951;-78
2021/05/18 19:20:47;;;;;;;;;;;10.80;99.90;;;;;;5016821;28;19929;-78
2021/05/18 19:23:14;;;;;;;;;;;10.70;99.90;;;;;;5033375;28;19936;-78
2021/05/18 19:25:41;;;;;;;;;;;10.70;99.90;;;;;;5032986;28;19944;-78
2021/05/18 19:28:15;;;;;;;;;;;10.70;99.90;;;;;;5016915;28;19944;-78
2021/05/18 19:30:47;;;;;;;;;;;10.70;99.90;;;;;;5016126;28;20399;-77
2021/05/18 19:33:16;;;;;;;;;;;10.70;99.90;;;;;;5016575;28;20358;-79
2021/05/18 19:49:16;;;;;;;;;;;10.70;99.90;;;;;;5016337;28;19929;-78
2021/05/18 19:51:49;;;;;;;;;;;10.60;99.90;;;;;;5033459;28;19925;-79
2021/05/18 19:54:20;;;;;;;;;;;10.60;99.90;;;;;;5015965;28;20027;-77
2021/05/18 20:23:33;;;;;;;;;;;10.20;99.90;;;;;;5049203;28;19932;-78
2021/05/18 20:25:59;;;;;;;;;;;10.10;99.90;;;;;;5016479;28;20027;-78
2021/05/18 20:28:28;;;;;;;;;;;10.10;99.90;;;;;;5016461;28;19925;-78
2021/05/18 20:30:57;;;;;;;;;;;10.00;99.90;;;;;;5032988;28;19982;-78
2021/05/18 20:41:15;;;;;;;;;;;9.70;99.90;;;;;;5048686;28;19935;-78
2021/05/18 20:43:42;;;;;;;;;;;9.70;99.90;;;;;;5032305;28;20011;-78
2021/05/18 20:46:09;;;;;;;;;;;9.70;99.90;;;;;;5016013;28;19948;-78
2021/05/18 20:48:35;;;;;;;;;;;9.70;99.90;;;;;;5032430;28;19925;-78
2021/05/18 20:51:02;;;;;;;;;;;9.60;99.90;;;;;;5015716;28;19960;-78
2021/05/18 20:53:29;;;;;;;;;;;9.60;99.90;;;;;;5032045;28;19984;-78
2021/05/18 20:56:00;;;;;;;;;;;9.50;99.90;;;;;;5016091;28;19925;-77
2021/05/18 20:58:33;;;;;;;;;;;9.50;99.90;;;;;;5048361;28;19925;-79
2021/05/18 21:01:05;;;;;;;;;;;9.50;99.90;;;;;;5000615;28;19929;-78
2021/05/18 21:03:33;;;;;;;;;;;9.40;99.90;;;;;;5015871;28;19925;-80
2021/05/18 21:06:08;;;;;;;;;;;9.40;99.90;;;;;;5033228;28;19932;-79
2021/05/18 21:08:55;;;;;;;;;;;9.50;99.90;;;;;;5015909;28;19940;-79
2021/05/18 21:17:13;;;;;;;;;;;9.30;99.90;;;;;;4975769;28;19997;-78
2021/05/18 21:19:40;;;;;;;;;;;9.30;99.90;;;;;;4991523;28;19925;-78
2021/05/18 21:22:07;;;;;;;;;;;9.30;99.90;;;;;;5031629;28;19925;-78
2021/05/18 21:24:35;;;;;;;;;;;9.20;99.90;;;;;;5032328;28;19932;-78
2021/05/18 21:27:02;;;;;;;;;;;9.20;99.90;;;;;;5032513;28;19925;-78
2021/05/18 21:29:29;;;;;;;;;;;9.20;99.90;;;;;;5015507;28;19925;-78
2021/05/18 21:31:57;;;;;;;;;;;9.10;99.90;;;;;;5032086;28;19960;-78
2021/05/18 21:34:24;;;;;;;;;;;8.90;99.90;;;;;;5015684;28;19925;-78